Time;durP1;ratioP1;P1;durP2;ratioP2;P2;SDS_P1;SDS_P2;PMS_P1;PMS_P2;Temp;Humidity;BMP_temperature;BMP_pressure;BME280_temperature;BME280_humidity;BME280_pressure;Samples;Min_cycle;Max_cycle;Signal;HPM_P1;HPM_P2
2023/06/05 00:02:15;;;;;;;1.73;1.63;;;19.30;42.20;;;;;;4976618;28;20516;-86
2023/06/05 00:04:43;;;;;;;2.42;2.00;;;19.20;42.10;;;;;;4978978;28;20556;-86
2023/06/05 00:07:12;;;;;;;2.40;2.17;;;19.20;42.20;;;;;;4982025;28;20351;-86
2023/06/05 00:09:43;;;;;;;2.28;1.98;;;19.10;42.00;;;;;;4978377;28;20043;-86
2023/06/05 00:12:12;;;;;;;2.38;2.17;;;19.10;42.10;;;;;;4972188;28;20027;-86
2023/06/05 00:14:59;;;;;;;1.67;1.58;;;19.10;42.20;;;;;;4998867;28;20125;-87
2023/06/05 00:17:25;;;;;;;2.55;1.90;;;19.00;42.10;;;;;;4981323;28;20617;-87
2023/06/05 00:19:54;;;;;;;2.25;2.05;;;19.00;42.10;;;;;;4981424;28;20486;-84
2023/06/05 00:22:21;;;;;;;2.47;1.95;;;18.90;42.00;;;;;;4980452;28;20474;-87
2023/06/05 00:24:50;;;;;;;2.20;2.00;;;18.90;42.10;;;;;;4978814;28;20080;-87
2023/06/05 00:27:16;;;;;;;2.80;1.90;;;18.80;42.00;;;;;;4977465;28;20061;-86
2023/06/05 00:29:42;;;;;;;2.63;1.98;;;18.80;42.10;;;;;;4979985;28;20026;-87
2023/06/05 00:32:11;;;;;;;2.30;1.88;;;18.80;42.10;;;;;;4976571;28;20069;-87
2023/06/05 00:34:37;;;;;;;1.95;1.80;;;18.70;42.00;;;;;;4981400;28;20068;-87
2023/06/05 00:37:04;;;;;;;3.17;2.05;;;18.70;42.10;;;;;;4979368;28;20145;-86
2023/06/05 00:39:33;;;;;;;1.75;1.65;;;18.60;42.10;;;;;;4979748;28;20034;-86
2023/06/05 00:41:59;;;;;;;2.05;1.95;;;18.60;42.10;;;;;;4957019;28;20046;-88
2023/06/05 00:44:25;;;;;;;2.92;1.83;;;18.50;42.00;;;;;;4988351;28;20042;-86
2023/06/05 00:46:52;;;;;;;1.73;1.63;;;18.50;42.10;;;;;;4977105;28;20065;-85
2023/06/05 00:49:19;;;;;;;2.42;1.73;;;18.40;42.00;;;;;;4979872;28;20040;-84
2023/06/05 00:51:46;;;;;;;2.55;2.35;;;18.40;42.10;;;;;;4978356;28;20037;-84
2023/06/05 00:54:13;;;;;;;2.35;1.77;;;18.30;42.00;;;;;;4979852;28;20065;-85
2023/06/05 00:56:43;;;;;;;3.00;2.13;;;18.30;42.10;;;;;;4974035;28;20031;-85
2023/06/05 00:59:13;;;;;;;3.80;2.10;;;18.30;42.20;;;;;;4981653;28;20509;-87
2023/06/05 01:01:47;;;;;;;2.50;2.03;;;18.20;42.10;;;;;;4974352;28;20151;-86
2023/06/05 01:04:16;;;;;;;1.90;1.70;;;18.20;42.10;;;;;;4978720;28;20256;-85
2023/06/05 01:06:43;;;;;;;1.98;1.80;;;18.10;42.10;;;;;;4973705;28;20284;-87
2023/06/05 01:09:10;;;;;;;2.83;1.83;;;18.10;42.10;;;;;;4979289;28;20034;-84
2023/06/05 01:11:39;;;;;;;2.55;1.83;;;18.00;42.00;;;;;;4978063;28;20038;-84
2023/06/05 01:14:20;;;;;;;1.98;1.73;;;18.00;42.10;;;;;;4997107;28;20296;-84
2023/06/05 01:16:48;;;;;;;3.85;1.80;;;18.00;42.30;;;;;;4975127;28;20546;-83
2023/06/05 01:19:18;;;;;;;2.63;1.80;;;17.90;42.70;;;;;;4978256;28;20649;-83
2023/06/05 01:21:47;;;;;;;2.33;2.00;;;17.90;42.20;;;;;;4982918;28;20034;-83
2023/06/05 01:24:15;;;;;;;2.17;1.75;;;17.80;42.10;;;;;;4982657;28;20030;-83
2023/06/05 01:26:52;;;;;;;1.83;1.50;;;17.80;42.20;;;;;;4983095;28;20639;-84
2023/06/05 01:29:31;;;;;;;2.10;1.70;;;17.80;42.20;;;;;;4973251;28;20062;-83
2023/06/05 01:32:03;;;;;;;3.38;2.00;;;17.80;42.30;;;;;;4978512;28;20041;-84
2023/06/05 01:34:31;;;;;;;1.88;1.50;;;17.70;42.20;;;;;;4982928;28;20074;-85
2023/06/05 01:36:58;;;;;;;2.00;1.85;;;17.60;42.10;;;;;;4980255;28;20042;-84
2023/06/05 01:39:27;;;;;;;2.05;1.80;;;17.60;42.10;;;;;;4981284;28;20027;-84
2023/06/05 01:41:58;;;;;;;3.25;2.22;;;17.60;42.20;;;;;;4965759;28;20026;-84
2023/06/05 01:44:31;;;;;;;4.80;2.05;;;17.50;42.10;;;;;;4992962;28;20419;-84
2023/06/05 01:46:57;;;;;;;2.17;2.00;;;17.50;42.20;;;;;;4980231;28;20085;-86
2023/06/05 01:49:26;;;;;;;3.60;2.03;;;17.50;42.30;;;;;;4989365;28;20034;-86
2023/06/05 01:51:54;;;;;;;3.15;2.30;;;17.40;42.20;;;;;;4982793;28;20506;-87
2023/06/05 01:54:23;;;;;;;4.40;1.77;;;17.40;42.40;;;;;;4995386;28;20038;-86
2023/06/05 01:56:56;;;;;;;3.25;1.95;;;17.30;42.50;;;;;;4986261;28;20031;-86
2023/06/05 01:59:22;;;;;;;2.53;2.13;;;17.20;42.10;;;;;;4971548;28;20105;-86
2023/06/05 02:01:49;;;;;;;2.75;2.55;;;17.20;42.30;;;;;;4974895;28;20353;-87
2023/06/05 02:04:18;;;;;;;2.08;1.90;;;17.10;42.20;;;;;;4981519;28;20038;-84
2023/06/05 02:07:05;;;;;;;1.70;1.60;;;17.10;42.30;;;;;;4975068;28;20046;-83
2023/06/05 02:09:51;;;;;;;4.25;2.40;;;17.00;42.20;;;;;;4977704;28;20053;-84
2023/06/05 02:12:26;;;;;;;2.85;2.00;;;17.00;42.30;;;;;;4981911;28;20495;-86
2023/06/05 02:14:53;;;;;;;;;;;17.00;42.40;;;;;;4978094;28;20050;-85
2023/06/05 02:17:24;;;;;;;2.10;1.70;;;16.90;42.20;;;;;;4987626;28;20068;-85
2023/06/05 02:19:53;;;;;;;2.05;1.75;;;16.90;42.10;;;;;;4988173;28;20046;-85
2023/06/05 02:22:19;;;;;;;2.90;2.58;;;16.80;42.10;;;;;;4978587;28;20043;-85
2023/06/05 02:24:46;;;;;;;2.10;1.55;;;16.80;42.20;;;;;;4987274;28;20062;-84
2023/06/05 02:27:16;;;;;;;2.35;2.15;;;16.80;42.40;;;;;;4986351;28;20048;-84
2023/06/05 02:29:46;;;;;;;2.40;2.15;;;16.80;42.40;;;;;;4983196;28;20057;-84
2023/06/05 02:32:19;;;;;;;2.80;2.20;;;16.70;42.40;;;;;;4988165;28;20042;-84
2023/06/05 02:34:47;;;;;;;2.63;1.85;;;16.70;42.50;;;;;;4967238;28;20041;-85
2023/06/05 02:37:17;;;;;;;2.30;1.73;;;16.60;42.40;;;;;;4986141;28;20053;-85
2023/06/05 02:39:43;;;;;;;2.13;1.92;;;16.60;42.40;;;;;;4987072;28;20259;-85
2023/06/05 02:42:12;;;;;;;2.47;2.00;;;16.50;42.40;;;;;;4979978;28;20097;-86
2023/06/05 02:44:38;;;;;;;2.22;2.03;;;16.50;42.40;;;;;;4987742;28;20143;-85
2023/06/05 02:47:08;;;;;;;3.30;1.90;;;16.50;42.50;;;;;;4971292;28;20602;-85
2023/06/05 02:49:37;;;;;;;2.25;1.90;;;16.40;42.40;;;;;;4987555;28;20053;-85
2023/06/05 02:52:04;;;;;;;2.83;1.52;;;16.40;42.60;;;;;;4986078;28;20030;-85
2023/06/05 02:54:30;;;;;;;2.45;2.17;;;16.40;42.60;;;;;;4988713;28;20042;-87
2023/06/05 02:57:00;;;;;;;2.85;1.85;;;16.30;42.50;;;;;;4987007;28;20359;-86
2023/06/05 02:59:31;;;;;;;2.60;2.20;;;16.30;42.60;;;;;;4985240;28;20303;-86
2023/06/05 03:02:05;;;;;;;3.05;1.85;;;16.20;42.50;;;;;;4985561;28;20038;-86
2023/06/05 03:04:32;;;;;;;2.72;2.00;;;16.20;42.60;;;;;;4980945;28;20128;-86
2023/06/05 03:07:03;;;;;;;2.20;2.00;;;16.10;42.50;;;;;;4986843;28;20504;-86
2023/06/05 03:09:31;;;;;;;3.10;1.67;;;16.10;42.60;;;;;;4994913;28;20478;-86
2023/06/05 03:11:58;;;;;;;2.25;2.05;;;16.10;42.70;;;;;;4987793;28;20493;-85
2023/06/05 03:14:28;;;;;;;3.10;2.13;;;16.00;42.60;;;;;;4979168;28;20042;-83
2023/06/05 03:16:54;;;;;;;2.85;1.90;;;16.00;42.70;;;;;;4985532;28;20042;-85
2023/06/05 03:19:22;;;;;;;3.35;2.40;;;15.90;42.60;;;;;;4969627;28;20043;-85
2023/06/05 03:21:53;;;;;;;2.05;1.90;;;15.90;42.80;;;;;;4973419;28;20087;-86
2023/06/05 03:24:24;;;;;;;2.53;2.30;;;15.90;42.80;;;;;;4977296;28;20034;-88
2023/06/05 03:26:54;;;;;;;2.67;1.70;;;15.80;42.70;;;;;;4979059;28;20089;-86
2023/06/05 03:29:22;;;;;;;2.13;2.03;;;15.80;42.80;;;;;;4980120;28;20030;-86
2023/06/05 03:31:51;;;;;;;2.20;2.00;;;15.80;42.90;;;;;;4977277;28;20058;-86
2023/06/05 03:34:18;;;;;;;2.83;2.10;;;15.70;42.80;;;;;;4975193;28;20066;-86
2023/06/05 03:36:45;;;;;;;2.30;2.10;;;15.70;42.80;;;;;;4984279;28;20495;-86
2023/06/05 03:39:14;;;;;;;2.50;2.30;;;15.60;42.70;;;;;;4983541;28;20042;-85
2023/06/05 03:41:42;;;;;;;2.53;2.33;;;15.60;42.80;;;;;;4999142;28;20022;-85
2023/06/05 03:44:08;;;;;;;3.55;2.55;;;15.60;42.90;;;;;;4977638;28;20088;-84
2023/06/05 03:46:41;;;;;;;2.53;2.33;;;15.50;42.80;;;;;;4988316;28;20093;-87
2023/06/05 03:49:09;;;;;;;2.92;2.25;;;15.50;42.80;;;;;;4981778;28;20065;-89
2023/06/05 03:51:44;;;;;;;3.75;2.35;;;15.50;42.90;;;;;;4964776;28;20037;-85
2023/06/05 03:54:12;;;;;;;4.15;2.38;;;15.50;42.90;;;;;;4996516;28;20129;-84
2023/06/05 03:56:49;;;;;;;;;;;15.50;43.00;;;;;;4969928;28;20057;-86
2023/06/05 03:59:19;;;;;;;2.45;2.25;;;15.40;42.80;;;;;;4984106;28;20305;-85
2023/06/05 04:01:50;;;;;;;2.92;2.60;;;15.40;42.60;;;;;;4978004;28;20061;-85
2023/06/05 04:04:16;;;;;;;2.78;2.33;;;15.40;42.70;;;;;;4976930;28;20394;-86
2023/06/05 04:06:43;;;;;;;2.33;2.10;;;15.40;42.80;;;;;;4965270;28;20161;-84
2023/06/05 04:09:15;;;;;;;;;;;15.30;42.80;;;;;;4987627;28;20030;-85
2023/06/05 04:11:44;;;;;;;2.30;2.10;;;15.30;42.70;;;;;;4981380;28;19914;-87
2023/06/05 04:14:11;;;;;;;2.65;2.05;;;15.30;42.70;;;;;;4975930;28;20097;-87
2023/06/05 04:16:42;;;;;;;4.72;2.83;;;15.30;42.70;;;;;;4986117;28;20458;-84
2023/06/05 04:19:12;;;;;;;3.00;2.80;;;15.20;42.70;;;;;;4985288;28;20130;-86
2023/06/05 04:21:42;;;;;;;2.53;2.33;;;15.20;42.80;;;;;;4982696;28;20316;-86
2023/06/05 04:24:11;;;;;;;4.55;2.75;;;15.20;42.90;;;;;;4985093;28;20027;-86
2023/06/05 04:26:41;;;;;;;4.93;2.72;;;15.20;43.00;;;;;;4968928;28;20034;-86
2023/06/05 04:29:13;;;;;;;2.80;2.50;;;15.20;43.00;;;;;;4966581;28;20099;-85
2023/06/05 04:31:45;;;;;;;3.03;2.75;;;15.20;43.10;;;;;;4980253;28;20022;-86
2023/06/05 04:34:21;;;;;;;3.20;2.53;;;15.20;43.20;;;;;;4984377;28;20042;-87
2023/06/05 04:36:51;;;;;;;4.03;2.83;;;15.20;43.20;;;;;;4984164;28;20022;-85
2023/06/05 04:39:18;;;;;;;5.05;3.35;;;15.20;43.20;;;;;;4980730;28;20449;-86
2023/06/05 04:41:47;;;;;;;3.58;2.67;;;15.20;43.20;;;;;;4975841;28;20034;-86
2023/06/05 04:44:18;;;;;;;3.67;2.47;;;15.30;43.40;;;;;;4974468;28;20050;-87
2023/06/05 04:46:45;;;;;;;2.72;2.53;;;15.20;43.10;;;;;;5000076;28;20049;-87
2023/06/05 04:49:14;;;;;;;2.70;2.50;;;15.30;43.30;;;;;;4997578;28;20187;-87
2023/06/05 04:51:47;;;;;;;4.40;2.42;;;15.30;43.30;;;;;;4981834;28;20046;-87
2023/06/05 04:54:17;;;;;;;3.47;2.60;;;15.30;43.20;;;;;;4973067;28;20452;-88
2023/06/05 04:56:45;;;;;;;2.60;2.40;;;15.40;43.40;;;;;;4989278;28;20483;-86
2023/06/05 04:59:12;;;;;;;3.45;2.80;;;15.40;43.40;;;;;;4981691;28;20523;-85
2023/06/05 05:01:40;;;;;;;4.63;3.33;;;15.40;43.40;;;;;;4983637;28;20026;-86
2023/06/05 05:04:06;;;;;;;3.25;2.95;;;15.40;43.40;;;;;;4979687;28;20093;-85
2023/06/05 05:06:35;;;;;;;4.63;2.22;;;15.50;43.60;;;;;;4981341;28;20475;-88
2023/06/05 05:09:03;;;;;;;2.80;2.55;;;15.50;43.50;;;;;;4972578;28;20262;-84
2023/06/05 05:11:30;;;;;;;3.35;2.70;;;15.50;43.50;;;;;;4977994;28;20038;-83
2023/06/05 05:13:58;;;;;;;2.53;2.33;;;15.50;43.50;;;;;;4978577;28;20278;-87
2023/06/05 05:16:25;;;;;;;4.03;3.28;;;15.60;43.70;;;;;;4982562;28;20034;-83
2023/06/05 05:18:54;;;;;;;3.30;3.00;;;15.50;43.50;;;;;;4978925;28;20034;-81
2023/06/05 05:21:20;;;;;;;3.20;2.88;;;15.60;43.70;;;;;;4981424;28;20027;-86
2023/06/05 05:23:47;;;;;;;3.53;2.70;;;15.60;43.70;;;;;;4984924;28;20027;-88
2023/06/05 05:26:13;;;;;;;5.38;3.13;;;15.60;43.70;;;;;;4975375;28;20069;-81
2023/06/05 05:28:39;;;;;;;3.85;3.10;;;15.60;43.60;;;;;;4975296;28;20034;-84
2023/06/05 05:31:12;;;;;;;3.47;3.05;;;15.60;43.70;;;;;;4977240;28;20041;-83
2023/06/05 05:33:38;;;;;;;3.97;2.92;;;15.60;43.60;;;;;;4971160;28;20134;-82
2023/06/05 05:36:04;;;;;;;3.35;3.05;;;15.60;43.60;;;;;;4980045;28;20053;-85
2023/06/05 05:38:31;;;;;;;5.53;3.28;;;15.60;43.60;;;;;;4984367;28;20049;-87
2023/06/05 05:40:57;;;;;;;3.28;2.90;;;15.60;43.60;;;;;;4976829;28;20030;-85
2023/06/05 05:43:26;;;;;;;3.05;2.83;;;15.60;43.60;;;;;;4979371;28;20042;-87
2023/06/05 05:45:52;;;;;;;3.10;2.80;;;15.70;43.80;;;;;;4988566;28;20350;-87
2023/06/05 05:48:18;;;;;;;3.88;3.22;;;15.70;43.80;;;;;;4984082;28;20046;-87
2023/06/05 05:50:47;;;;;;;3.85;3.55;;;15.70;43.70;;;;;;4985595;28;20415;-88
2023/06/05 05:53:17;;;;;;;4.00;2.70;;;15.70;43.70;;;;;;4980728;28;20053;-88
2023/06/05 05:55:43;;;;;;;6.22;3.67;;;15.70;43.70;;;;;;4985807;28;20038;-89
2023/06/05 05:58:16;;;;;;;4.75;3.22;;;15.80;44.50;;;;;;4984453;28;20049;-87
2023/06/05 06:00:42;;;;;;;4.97;3.80;;;15.80;43.80;;;;;;4976131;28;20130;-87
2023/06/05 06:03:09;;;;;;;4.68;4.18;;;15.80;43.70;;;;;;4964847;28;20646;-86
2023/06/05 06:05:35;;;;;;;5.72;4.70;;;15.80;43.70;;;;;;4982167;28;20050;-86
2023/06/05 06:08:03;;;;;;;4.55;4.15;;;15.80;43.70;;;;;;4982794;28;20044;-84
2023/06/05 06:10:36;;;;;;;4.68;4.20;;;15.80;43.90;;;;;;4978959;28;20041;-83
2023/06/05 06:13:02;;;;;;;5.13;4.60;;;15.70;44.20;;;;;;4978259;28;20042;-83
2023/06/05 06:15:28;;;;;;;3.67;3.38;;;15.80;44.70;;;;;;4977681;28;20026;-84
2023/06/05 06:17:54;;;;;;;6.07;4.50;;;15.90;45.20;;;;;;4976246;28;20045;-81
2023/06/05 06:20:22;;;;;;;7.75;4.40;;;15.90;45.50;;;;;;4980294;28;20030;-81
2023/06/05 06:22:51;;;;;;;6.47;4.70;;;16.00;45.90;;;;;;4978531;28;20050;-83
2023/06/05 06:25:20;;;;;;;8.10;4.50;;;16.10;46.50;;;;;;4984543;28;20529;-87
2023/06/05 06:27:53;;;;;;;4.85;4.45;;;16.30;47.40;;;;;;4981875;28;20988;-88
2023/06/05 06:30:19;;;;;;;6.10;4.72;;;16.50;48.20;;;;;;4975271;28;20038;-87
2023/06/05 06:32:48;;;;;;;5.00;4.30;;;16.70;48.50;;;;;;4982484;28;20050;-84
2023/06/05 06:35:15;;;;;;;5.50;4.72;;;16.80;48.50;;;;;;4974858;28;20927;-89
2023/06/05 06:37:42;;;;;;;4.68;4.28;;;17.00;48.50;;;;;;4980875;28;20078;-90
2023/06/05 06:40:09;;;;;;;6.22;5.63;;;17.10;48.30;;;;;;4980057;28;20038;-89
2023/06/05 06:42:38;;;;;;;5.50;4.95;;;17.20;48.10;;;;;;4976632;28;20079;-90
2023/06/05 06:45:21;;;;;;;5.72;5.13;;;17.40;48.00;;;;;;4977088;28;20113;-90
2023/06/05 06:47:49;;;;;;;6.03;4.63;;;17.50;47.70;;;;;;4981717;28;20129;-85
2023/06/05 06:50:18;;;;;;;5.07;4.60;;;17.80;48.40;;;;;;4977003;28;20589;-86
2023/06/05 06:52:45;;;;;;;4.97;4.65;;;18.10;47.60;;;;;;4994596;28;20133;-87
2023/06/05 06:55:17;;;;;;;5.22;4.82;;;18.30;47.30;;;;;;4974816;28;20030;-85
2023/06/05 06:57:43;;;;;;;5.60;4.80;;;18.40;47.00;;;;;;4977372;28;20023;-86
2023/06/05 07:00:12;;;;;;;5.22;4.82;;;18.50;46.80;;;;;;4978413;28;20049;-87
2023/06/05 07:02:39;;;;;;;5.50;5.00;;;18.60;46.70;;;;;;4979608;28;20040;-86
2023/06/05 07:05:09;;;;;;;5.43;4.93;;;18.70;46.60;;;;;;4978918;28;20049;-86
2023/06/05 07:07:35;;;;;;;5.47;4.07;;;18.70;46.30;;;;;;4978178;28;20490;-86
2023/06/05 07:10:01;;;;;;;6.63;5.13;;;18.80;46.30;;;;;;4985976;28;20042;-86
2023/06/05 07:12:27;;;;;;;5.75;4.20;;;18.90;46.10;;;;;;4982819;28;20052;-89
2023/06/05 07:14:54;;;;;;;4.30;3.90;;;18.90;45.90;;;;;;4985828;28;20041;-86
2023/06/05 07:17:21;;;;;;;5.82;3.85;;;19.00;45.80;;;;;;4976701;28;20642;-86
2023/06/05 07:19:47;;;;;;;3.97;3.58;;;19.10;45.80;;;;;;4985059;28;20048;-88
2023/06/05 07:22:16;;;;;;;6.50;3.78;;;19.10;45.60;;;;;;4976127;28;20038;-88
2023/06/05 07:25:03;;;;;;;5.03;4.30;;;19.20;45.70;;;;;;4940089;28;20566;-84
2023/06/05 07:27:29;;;;;;;4.03;3.63;;;19.20;45.40;;;;;;4945036;28;20198;-87
2023/06/05 07:29:57;;;;;;;3.80;3.50;;;19.30;45.40;;;;;;4956835;28;20038;-87
2023/06/05 07:32:24;;;;;;;3.97;3.65;;;19.30;45.10;;;;;;4979149;28;20429;-86
2023/06/05 07:34:50;;;;;;;4.57;3.70;;;19.40;45.10;;;;;;4977501;28;20034;-88
2023/06/05 07:37:22;;;;;;;3.55;3.08;;;19.40;44.90;;;;;;4979647;28;20041;-88
2023/06/05 07:39:50;;;;;;;3.08;2.88;;;19.50;44.90;;;;;;4980811;28;20498;-88
2023/06/05 07:42:27;;;;;;;3.60;3.30;;;19.50;44.80;;;;;;4973002;28;20121;-89
2023/06/05 07:44:53;;;;;;;3.83;3.20;;;19.60;44.80;;;;;;4984318;28;20030;-87
2023/06/05 07:47:20;;;;;;;3.45;3.15;;;19.70;44.90;;;;;;4984493;28;20235;-87
2023/06/05 07:49:58;;;;;;;2.88;2.67;;;19.70;44.70;;;;;;4986841;28;20204;-87
2023/06/05 07:52:25;;;;;;;3.70;3.33;;;19.70;44.50;;;;;;5008365;28;20084;-87
2023/06/05 07:54:54;;;;;;;4.10;2.60;;;19.70;44.40;;;;;;4982277;28;20157;-88
2023/06/05 07:57:20;;;;;;;3.50;2.70;;;19.80;44.50;;;;;;4979944;28;20049;-86
2023/06/05 07:59:49;;;;;;;3.42;3.13;;;19.80;44.40;;;;;;4979716;28;20068;-87
2023/06/05 08:02:18;;;;;;;2.83;2.60;;;19.80;44.30;;;;;;4992475;28;20222;-88
2023/06/05 08:04:44;;;;;;;4.47;2.92;;;19.90;44.30;;;;;;4982661;28;20462;-90
2023/06/05 08:07:13;;;;;;;4.25;3.15;;;20.00;44.40;;;;;;4981397;28;20100;-86
2023/06/05 08:09:39;;;;;;;3.60;2.95;;;20.00;44.20;;;;;;4976696;28;20033;-86
2023/06/05 08:12:06;;;;;;;3.30;2.47;;;20.10;44.30;;;;;;4979236;28;20153;-89
2023/06/05 08:14:34;;;;;;;4.93;2.85;;;20.10;44.10;;;;;;4985585;28;20105;-89
2023/06/05 08:17:00;;;;;;;6.30;3.45;;;20.20;44.10;;;;;;4980078;28;20034;-89
2023/06/05 08:19:29;;;;;;;3.83;2.47;;;20.30;44.10;;;;;;4971782;28;20158;-88
2023/06/05 08:21:57;;;;;;;3.90;2.83;;;20.50;44.20;;;;;;4970972;28;20034;-89
2023/06/05 08:24:24;;;;;;;3.28;2.50;;;20.50;44.00;;;;;;4977132;28;20092;-90
2023/06/05 08:26:53;;;;;;;3.63;2.45;;;20.70;44.20;;;;;;4973730;28;20046;-87
2023/06/05 08:29:22;;;;;;;2.88;2.63;;;20.80;44.10;;;;;;4975606;28;20041;-89
2023/06/05 08:31:48;;;;;;;2.90;2.47;;;20.90;44.00;;;;;;4976173;28;20038;-85
2023/06/05 08:34:17;;;;;;;4.90;2.72;;;21.10;44.10;;;;;;4971893;28;20050;-84
2023/06/05 08:36:44;;;;;;;3.55;2.95;;;21.30;44.10;;;;;;4964908;28;20455;-86
2023/06/05 08:39:16;;;;;;;4.15;2.50;;;21.40;44.00;;;;;;4984275;28;20113;-90
2023/06/05 08:41:43;;;;;;;3.05;2.75;;;21.60;44.20;;;;;;4969065;28;20041;-89
2023/06/05 08:44:12;;;;;;;2.58;2.33;;;21.70;44.00;;;;;;4990487;28;20040;-89
2023/06/05 08:46:43;;;;;;;2.65;2.33;;;21.90;44.10;;;;;;4976806;28;20096;-90
2023/06/05 08:49:30;;;;;;;2.97;2.45;;;22.00;43.90;;;;;;4965712;28;20045;-91
2023/06/05 08:52:02;;;;;;;3.72;2.95;;;22.20;44.00;;;;;;4976208;28;20502;-89
2023/06/05 08:54:38;;;;;;;2.42;2.22;;;22.40;44.00;;;;;;4973472;28;20098;-88
2023/06/05 08:57:07;;;;;;;2.55;2.28;;;22.60;44.00;;;;;;4974403;28;20514;-88
2023/06/05 08:59:36;;;;;;;3.05;2.42;;;22.70;43.90;;;;;;4968351;28;20039;-89
2023/06/05 09:02:06;;;;;;;3.67;2.25;;;22.90;44.10;;;;;;4975877;28;20100;-89
2023/06/05 09:04:35;;;;;;;2.97;2.25;;;23.00;43.90;;;;;;4968525;28;20526;-91
2023/06/05 09:07:01;;;;;;;2.63;2.28;;;23.10;43.80;;;;;;4976949;28;20034;-91
2023/06/05 09:09:27;;;;;;;3.08;2.55;;;23.30;43.90;;;;;;4982827;28;20043;-89
2023/06/05 09:12:06;;;;;;;3.10;2.47;;;23.40;43.80;;;;;;4978697;28;20042;-86
2023/06/05 09:14:33;;;;;;;2.38;2.08;;;23.50;43.60;;;;;;4979512;28;20145;-90
2023/06/05 09:17:01;;;;;;;2.67;2.10;;;23.70;43.70;;;;;;4980606;28;20386;-91
2023/06/05 09:19:37;;;;;;;2.22;2.03;;;23.90;43.80;;;;;;4980896;28;20046;-90
2023/06/05 09:22:08;;;;;;;3.95;2.58;;;24.10;43.80;;;;;;4970741;28;20240;-91
2023/06/05 09:24:34;;;;;;;3.20;2.70;;;24.30;43.80;;;;;;4981541;28;20038;-90
2023/06/05 09:27:09;;;;;;;2.65;2.28;;;24.60;44.00;;;;;;4979258;28;20042;-91
2023/06/05 09:29:40;;;;;;;3.03;2.60;;;24.70;43.80;;;;;;4974994;28;20036;-93
2023/06/05 09:32:19;;;;;;;3.85;2.55;;;24.90;43.90;;;;;;4980939;28;20046;-92
2023/06/05 09:34:59;;;;;;;2.80;2.50;;;25.10;43.80;;;;;;4976980;28;20052;-88
2023/06/05 09:37:36;;;;;;;3.97;2.13;;;25.20;43.50;;;;;;4978913;28;20508;-87
2023/06/05 09:40:14;;;;;;;2.60;2.35;;;25.40;43.30;;;;;;4974481;28;20219;-89
2023/06/05 09:42:41;;;;;;;3.28;2.08;;;25.50;43.70;;;;;;4975712;28;20467;-87
2023/06/05 09:45:07;;;;;;;3.08;2.30;;;25.80;43.00;;;;;;4967372;28;20058;-90
2023/06/05 09:47:39;;;;;;;2.90;2.55;;;26.00;42.80;;;;;;4978415;28;20540;-88
2023/06/05 09:50:21;;;;;;;3.15;1.95;;;26.30;42.60;;;;;;4979086;28;20517;-87
2023/06/05 09:52:48;;;;;;;4.13;2.28;;;26.60;42.10;;;;;;4989840;28;20433;-90
2023/06/05 09:55:14;;;;;;;4.45;2.80;;;26.80;42.00;;;;;;4995171;28;20026;-90
2023/06/05 09:57:40;;;;;;;4.13;2.63;;;27.00;41.60;;;;;;4981496;28;20027;-90
2023/06/05 10:00:07;;;;;;;2.70;2.03;;;27.20;41.40;;;;;;4979435;28;20040;-88
2023/06/05 10:02:35;;;;;;;2.88;2.10;;;27.40;41.20;;;;;;4981303;28;20168;-90
2023/06/05 10:05:08;;;;;;;3.05;2.60;;;27.50;41.00;;;;;;4988809;28;20045;-88
2023/06/05 10:07:38;;;;;;;3.60;3.00;;;27.60;40.80;;;;;;4985754;28;20032;-86
2023/06/05 10:10:06;;;;;;;2.83;2.60;;;27.70;40.60;;;;;;4984069;28;20042;-88
2023/06/05 10:12:33;;;;;;;3.35;2.42;;;27.90;40.60;;;;;;4985902;28;20046;-90
2023/06/05 10:14:59;;;;;;;3.67;3.03;;;28.00;40.60;;;;;;4986205;28;20045;-89
2023/06/05 10:17:26;;;;;;;3.83;2.70;;;28.10;40.50;;;;;;4992725;28;20034;-88
2023/06/05 10:19:52;;;;;;;2.55;2.20;;;28.20;40.50;;;;;;4987339;28;20041;-89
2023/06/05 10:22:28;;;;;;;2.28;1.92;;;28.30;40.40;;;;;;4983773;28;20100;-88
2023/06/05 10:25:02;;;;;;;2.47;2.22;;;28.40;40.20;;;;;;4982580;28;20469;-90
2023/06/05 10:28:05;;;;;;;3.30;2.30;;;28.70;39.90;;;;;;4978504;28;21070;-93
2023/06/05 10:31:06;;;;;;;3.25;2.30;;;29.00;39.60;;;;;;4988538;28;20117;-90
2023/06/05 10:33:41;;;;;;;3.13;2.05;;;29.10;39.40;;;;;;4984344;28;20434;-92
2023/06/05 10:36:16;;;;;;;2.33;1.90;;;29.30;39.40;;;;;;4986052;28;20420;-93
2023/06/05 10:38:45;;;;;;;3.00;2.30;;;29.50;39.30;;;;;;4991612;28;20477;-87
2023/06/05 10:41:12;;;;;;;2.90;2.60;;;29.90;38.90;;;;;;4985147;28;20066;-90
2023/06/05 10:43:49;;;;;;;3.58;2.58;;;30.20;38.50;;;;;;4979782;28;20038;-92
2023/06/05 10:46:28;;;;;;;4.05;2.45;;;30.40;37.90;;;;;;4979718;28;20469;-84
2023/06/05 10:49:12;;;;;;;5.88;2.33;;;30.60;37.90;;;;;;4984676;28;20065;-88
2023/06/05 10:51:46;;;;;;;2.90;2.28;;;30.60;37.70;;;;;;4982863;28;20036;-90
2023/06/05 10:54:38;;;;;;;3.75;2.20;;;30.90;37.70;;;;;;4981912;28;20053;-90
2023/06/05 10:57:06;;;;;;;3.40;3.10;;;31.10;37.30;;;;;;4978923;28;20049;-90
2023/06/05 11:00:11;;;;;;;2.40;2.20;;;31.40;37.30;;;;;;4934926;28;20047;-89
2023/06/05 11:02:46;;;;;;;2.63;2.15;;;31.50;36.80;;;;;;4979292;28;20113;-92
2023/06/05 11:05:13;;;;;;;3.28;2.17;;;31.60;37.40;;;;;;4979054;28;20034;-87
2023/06/05 11:07:45;;;;;;;2.05;1.85;;;31.60;36.70;;;;;;4978654;28;20042;-85
2023/06/05 11:10:22;;;;;;;2.30;2.10;;;31.60;36.60;;;;;;4982342;28;20509;-89
2023/06/05 11:12:51;;;;;;;2.42;2.22;;;31.60;36.50;;;;;;4968938;28;20446;-90
2023/06/05 11:15:32;;;;;;;2.92;2.15;;;31.50;36.50;;;;;;4983771;28;20038;-90
2023/06/05 11:18:28;;;;;;;2.72;2.00;;;31.50;36.30;;;;;;4981647;28;20436;-88
2023/06/05 11:20:55;;;;;;;3.20;2.25;;;31.40;36.30;;;;;;4971665;28;20022;-87
2023/06/05 11:23:21;;;;;;;2.03;1.88;;;31.40;36.40;;;;;;4972622;28;20089;-89
2023/06/05 11:25:50;;;;;;;2.90;2.30;;;31.30;36.40;;;;;;4978074;28;20921;-89
2023/06/05 11:28:37;;;;;;;2.03;1.90;;;31.30;36.40;;;;;;4967970;28;20512;-88
2023/06/05 11:31:04;;;;;;;3.05;2.30;;;31.60;36.10;;;;;;4979357;28;20045;-87
2023/06/05 11:33:48;;;;;;;4.60;2.35;;;32.00;36.00;;;;;;4980619;28;20496;-87
2023/06/05 11:36:23;;;;;;;2.85;2.13;;;32.50;35.70;;;;;;4984582;28;20065;-86
2023/06/05 11:38:54;;;;;;;3.25;2.05;;;32.90;35.20;;;;;;4973538;28;20452;-90
2023/06/05 11:41:25;;;;;;;3.13;2.20;;;33.10;34.90;;;;;;4970670;28;20040;-91
2023/06/05 11:43:51;;;;;;;3.83;2.08;;;33.20;34.80;;;;;;4972340;28;20073;-89
2023/06/05 11:46:34;;;;;;;3.05;2.28;;;33.40;34.60;;;;;;4976395;28;20098;-89
2023/06/05 11:49:00;;;;;;;2.38;2.13;;;33.50;34.50;;;;;;4970868;28;20383;-90
2023/06/05 11:51:36;;;;;;;2.10;2.00;;;33.60;34.40;;;;;;4970546;28;20450;-87
2023/06/05 11:54:04;;;;;;;2.60;2.40;;;33.80;34.30;;;;;;4970958;28;20093;-89
2023/06/05 11:56:32;;;;;;;2.17;2.05;;;34.00;34.10;;;;;;4975826;28;20128;-87
2023/06/05 11:59:09;;;;;;;2.28;2.05;;;34.20;34.00;;;;;;4970687;28;20031;-88
2023/06/05 12:01:43;;;;;;;4.25;2.78;;;34.30;33.70;;;;;;4976479;28;20038;-90
2023/06/05 12:04:09;;;;;;;3.90;2.75;;;34.30;33.50;;;;;;4978658;28;20042;-86
2023/06/05 12:06:47;;;;;;;2.15;1.95;;;34.20;33.50;;;;;;4971630;28;20037;-88
2023/06/05 12:09:19;;;;;;;3.40;2.25;;;34.30;33.40;;;;;;4961624;28;20040;-85
2023/06/05 12:11:48;;;;;;;6.32;2.97;;;34.40;33.30;;;;;;4974256;28;20454;-89
2023/06/05 12:14:31;;;;;;;2.33;2.13;;;34.50;33.10;;;;;;4986040;28;20042;-88
2023/06/05 12:16:58;;;;;;;2.90;2.47;;;34.50;32.70;;;;;;4972896;28;20042;-88
2023/06/05 12:19:24;;;;;;;2.42;1.70;;;34.50;32.90;;;;;;4977901;28;20575;-84
2023/06/05 12:21:51;;;;;;;1.83;1.52;;;34.50;32.80;;;;;;4970349;28;20579;-91
2023/06/05 12:24:26;;;;;;;3.05;2.33;;;34.60;32.80;;;;;;4974547;28;20039;-87
2023/06/05 12:26:55;;;;;;;3.15;2.15;;;34.70;32.60;;;;;;4973850;28;20572;-85
2023/06/05 12:29:28;;;;;;;2.50;2.17;;;34.80;32.50;;;;;;4970885;28;20038;-89
2023/06/05 12:31:59;;;;;;;2.72;2.17;;;35.00;32.50;;;;;;4981694;28;20041;-87
2023/06/05 12:34:47;;;;;;;2.40;2.20;;;35.10;32.40;;;;;;4969103;28;20047;-86
2023/06/05 12:37:31;;;;;;;2.67;2.00;;;35.20;32.10;;;;;;4976383;28;20037;-87
2023/06/05 12:39:58;;;;;;;2.22;1.70;;;35.30;32.10;;;;;;4983187;28;20685;-87
2023/06/05 12:42:25;;;;;;;1.92;1.73;;;35.40;32.20;;;;;;4979138;28;20070;-87
2023/06/05 12:45:00;;;;;;;1.98;1.75;;;35.50;32.10;;;;;;4965333;28;20035;-88
2023/06/05 12:47:29;;;;;;;2.20;1.92;;;35.60;32.00;;;;;;4977905;28;20149;-86
2023/06/05 12:49:56;;;;;;;1.95;1.58;;;35.60;31.90;;;;;;4971802;28;20067;-87
2023/06/05 12:52:25;;;;;;;4.18;2.15;;;35.60;31.90;;;;;;4975286;28;20042;-88
2023/06/05 12:54:56;;;;;;;4.38;1.88;;;35.60;31.90;;;;;;4976220;28;20698;-91
2023/06/05 12:57:25;;;;;;;2.15;1.95;;;35.60;31.90;;;;;;4978634;28;20045;-88
2023/06/05 12:59:54;;;;;;;2.05;1.75;;;35.70;31.90;;;;;;4978010;28;20045;-90
2023/06/05 13:02:21;;;;;;;3.15;2.03;;;35.80;31.80;;;;;;4978319;28;20359;-91
2023/06/05 13:04:47;;;;;;;2.47;1.58;;;35.80;31.80;;;;;;4972108;28;20038;-90